Greenwald, Minnesota
Current Conditions -  °F | °C
As of 8:12 AM on Friday 19 Dec 2014 (Local Time) from KD39 Reporting Station
Haze Haze  
Wind Chill: 13°   Ceiling: 300
Heat Index: 21°   Visibility: 1.5mi
Dew Point: 20°   Wind: 7mph
Humidity: 96%   Direction: 140°SE
Pressure: 30.17"   Gusts: NA
Location:  45.6°N, 94.86°W
Report Text: KD39 191412Z AUTO 14006KT 1 1/2SM BR OVC003 M06/M06 A3017 RMK AO2 T10591064
Loading
Personal Weather Stations






























Interactive Weather Map New forecast layout! Learn more

10-Day Weather Forecast

Advertisements
Track Severe Weather on mobile